createdAt,value
2023-09-06T00:01:52.240Z,101776.52
2023-09-06T00:04:29.906Z,101781.17
2023-09-06T00:07:10.062Z,101784.05
2023-09-06T00:09:48.266Z,101784.81
2023-09-06T00:12:31.042Z,101786.23
2023-09-06T00:15:16.274Z,101787.28
2023-09-06T00:18:00.331Z,101783.92
2023-09-06T00:20:39.747Z,101781.81
2023-09-06T00:23:25.097Z,101778.17
2023-09-06T00:26:03.947Z,101778.06
2023-09-06T00:28:42.650Z,101779.40
2023-09-06T00:31:26.963Z,101777.52
2023-09-06T00:34:22.220Z,101774.77
2023-09-06T00:37:13.371Z,101773.36
2023-09-06T00:39:52.690Z,101775.91
2023-09-06T00:42:32.607Z,101781.40
2023-09-06T00:45:31.349Z,101785.45
2023-09-06T00:48:11.036Z,101785.92
2023-09-06T00:51:01.384Z,101788.79
2023-09-06T00:53:40.001Z,101789.04
2023-09-06T00:56:24.113Z,101787.88
2023-09-06T00:59:03.800Z,101788.54
2023-09-06T01:01:47.377Z,101788.30
2023-09-06T01:04:29.892Z,101789.82
2023-09-06T01:07:08.209Z,101790.29
2023-09-06T01:09:53.946Z,101789.16
2023-09-06T01:12:38.140Z,101788.36
2023-09-06T01:15:23.226Z,101785.35
2023-09-06T01:18:05.601Z,101779.55
2023-09-06T01:20:55.530Z,101779.11
2023-09-06T01:23:45.280Z,101776.51
2023-09-06T01:26:34.378Z,101776.37
2023-09-06T01:29:12.406Z,101775.03
2023-09-06T01:31:57.115Z,101778.05
2023-09-06T01:34:40.323Z,101775.30
2023-09-06T01:37:16.357Z,101774.73
2023-09-06T01:39:56.675Z,101771.38
2023-09-06T01:42:40.252Z,101770.45
2023-09-06T01:45:33.370Z,101771.26
2023-09-06T01:48:15.217Z,101772.08
2023-09-06T01:50:53.140Z,101771.21
2023-09-06T01:53:31.016Z,101768.36
2023-09-06T01:56:19.598Z,101773.30
2023-09-06T01:59:04.329Z,101770.14
2023-09-06T02:01:42.532Z,101771.31
2023-09-06T02:04:21.429Z,101769.11
2023-09-06T02:07:14.267Z,101769.00
2023-09-06T02:09:59.788Z,101770.20
2023-09-06T02:12:36.169Z,101770.52
2023-09-06T02:15:21.044Z,101771.95
2023-09-06T02:18:06.735Z,101775.84
2023-09-06T02:20:45.013Z,101780.28
2023-09-06T02:23:24.326Z,101780.50
2023-09-06T02:26:05.827Z,101781.13
2023-09-06T02:28:43.039Z,101781.71
2023-09-06T02:31:21.411Z,101786.02
2023-09-06T02:34:01.529Z,101781.46
2023-09-06T02:36:42.096Z,101785.09
2023-09-06T02:39:24.408Z,101785.98
2023-09-06T02:42:06.949Z,101786.58
2023-09-06T02:44:48.066Z,101787.55
2023-09-06T02:47:49.981Z,101789.53
2023-09-06T02:50:28.898Z,101788.10
2023-09-06T02:53:18.650Z,101791.67
2023-09-06T02:56:06.716Z,101788.09
2023-09-06T02:58:44.689Z,101788.73
2023-09-06T03:01:32.865Z,101789.07
2023-09-06T03:04:08.439Z,101791.49
2023-09-06T03:06:51.160Z,101791.25
2023-09-06T03:09:37.058Z,101790.69
2023-09-06T03:12:15.827Z,101789.27
2023-09-06T03:14:57.528Z,101789.72
2023-09-06T03:17:31.764Z,101791.80
2023-09-06T03:20:34.968Z,101791.59
2023-09-06T03:23:23.583Z,101790.29
2023-09-06T03:26:07.203Z,101789.57
2023-09-06T03:29:02.329Z,101786.71
2023-09-06T03:31:57.846Z,101792.59
2023-09-06T03:34:35.314Z,101793.89
2023-09-06T03:37:13.984Z,101792.45
2023-09-06T03:39:55.217Z,101791.70
2023-09-06T03:42:33.975Z,101790.81
2023-09-06T03:45:17.324Z,101794.70
2023-09-06T03:47:59.139Z,101792.95
2023-09-06T03:50:37.883Z,101796.25
2023-09-06T03:53:16.828Z,101791.17
2023-09-06T03:55:59.790Z,101795.69
2023-09-06T03:58:46.809Z,101795.69
2023-09-06T04:01:30.065Z,101799.63
2023-09-06T04:04:12.662Z,101804.17
2023-09-06T04:07:09.996Z,101804.92
2023-09-06T04:09:46.489Z,101801.91
2023-09-06T04:12:24.620Z,101798.45
2023-09-06T04:15:02.093Z,101802.89
2023-09-06T04:17:52.684Z,101804.19
2023-09-06T04:20:36.649Z,101802.01
2023-09-06T04:23:14.975Z,101803.55
2023-09-06T04:25:59.644Z,101804.04
2023-09-06T04:28:51.505Z,101804.42
2023-09-06T04:31:29.123Z,101804.73
2023-09-06T04:34:13.634Z,101810.13
2023-09-06T04:36:51.639Z,101805.14
2023-09-06T04:39:32.742Z,101804.67
2023-09-06T04:42:17.025Z,101805.57
2023-09-06T04:44:58.766Z,101806.81
2023-09-06T04:47:39.535Z,101806.34
2023-09-06T04:50:19.730Z,101800.71
2023-09-06T04:52:59.861Z,101803.05
2023-09-06T04:55:41.604Z,101804.67
2023-09-06T04:58:19.854Z,101807.17
2023-09-06T05:01:08.155Z,101806.64
2023-09-06T05:03:43.531Z,101811.47
2023-09-06T05:06:27.585Z,101813.44
2023-09-06T05:09:06.893Z,101813.42
2023-09-06T05:11:48.472Z,101815.09
2023-09-06T05:14:31.383Z,101815.67
2023-09-06T05:17:20.389Z,101821.29
2023-09-06T05:19:58.261Z,101820.10
2023-09-06T05:22:50.766Z,101817.37
2023-09-06T05:25:31.950Z,101820.31
2023-09-06T05:28:13.989Z,101823.31
2023-09-06T05:30:59.211Z,101823.66
2023-09-06T05:33:50.877Z,101825.27
2023-09-06T05:36:26.283Z,101820.64
2023-09-06T05:39:03.160Z,101820.63
2023-09-06T05:41:48.221Z,101821.70
2023-09-06T05:44:44.787Z,101826.21
2023-09-06T05:47:23.690Z,101832.35
2023-09-06T05:50:01.416Z,101835.25
2023-09-06T05:52:38.819Z,101833.06
2023-09-06T05:55:16.475Z,101830.52
2023-09-06T05:57:54.065Z,101830.80
2023-09-06T06:00:37.235Z,101831.48
2023-09-06T06:03:13.398Z,101834.66
2023-09-06T06:05:53.024Z,101832.70
2023-09-06T06:08:32.658Z,101830.20
2023-09-06T06:11:15.578Z,101830.01
2023-09-06T06:14:13.269Z,101834.28
2023-09-06T06:16:51.567Z,101837.34
2023-09-06T06:19:36.423Z,101839.84
2023-09-06T06:22:14.698Z,101844.34
2023-09-06T06:24:55.169Z,101850.59
2023-09-06T06:27:33.635Z,101851.59
2023-09-06T06:30:13.179Z,101854.86
2023-09-06T06:32:59.424Z,101856.52
2023-09-06T06:35:37.964Z,101858.19
2023-09-06T06:38:21.838Z,101859.00
2023-09-06T06:40:58.763Z,101862.98
2023-09-06T06:43:35.730Z,101858.64
2023-09-06T06:46:35.582Z,101858.58
2023-09-06T06:49:19.245Z,101855.98
2023-09-06T06:51:56.830Z,101858.38
2023-09-06T06:54:33.064Z,101857.23
2023-09-06T06:57:26.242Z,101857.83
2023-09-06T07:00:12.595Z,101858.60
2023-09-06T07:02:52.787Z,101855.98
2023-09-06T07:05:31.848Z,101853.40
2023-09-06T07:08:09.352Z,101856.55
2023-09-06T07:10:50.863Z,101858.21
2023-09-06T07:13:31.098Z,101856.34
2023-09-06T07:16:08.252Z,101856.09
2023-09-06T07:18:47.851Z,101853.98
2023-09-06T07:21:23.366Z,101859.02
2023-09-06T07:24:02.719Z,101862.29
2023-09-06T07:26:54.328Z,101866.63
2023-09-06T07:29:29.648Z,101864.73
2023-09-06T07:32:10.854Z,101862.51
2023-09-06T07:34:49.250Z,101866.48
2023-09-06T07:37:42.690Z,101868.66
2023-09-06T07:40:17.284Z,101868.20
2023-09-06T07:43:18.412Z,101871.27
2023-09-06T07:45:54.054Z,101877.91
2023-09-06T07:48:45.425Z,101874.56
2023-09-06T07:51:28.309Z,101872.83
2023-09-06T07:54:07.884Z,101875.17
2023-09-06T07:56:50.750Z,101876.43
2023-09-06T07:59:29.196Z,101875.55
2023-09-06T08:02:09.187Z,101874.48
2023-09-06T08:04:48.563Z,101875.20
2023-09-06T08:07:27.278Z,101876.63
2023-09-06T08:10:10.573Z,101876.98
2023-09-06T08:12:51.304Z,101876.51
2023-09-06T08:15:46.057Z,101878.27
2023-09-06T08:18:35.595Z,101879.86
2023-09-06T08:21:13.836Z,101879.29
2023-09-06T08:23:54.368Z,101880.52
2023-09-06T08:26:39.413Z,101880.14
2023-09-06T08:29:20.553Z,101881.49
2023-09-06T08:31:59.549Z,101886.45
2023-09-06T08:34:40.331Z,101887.45
2023-09-06T08:37:20.346Z,101893.27
2023-09-06T08:39:56.005Z,101894.70
2023-09-06T08:42:39.094Z,101889.50
2023-09-06T08:45:23.486Z,101892.47
2023-09-06T08:48:04.609Z,101891.30
2023-09-06T08:50:46.144Z,101889.96
2023-09-06T08:53:26.763Z,101890.53
2023-09-06T08:56:11.438Z,101890.20
2023-09-06T08:59:00.348Z,101886.51
2023-09-06T09:01:39.555Z,101885.58
2023-09-06T09:04:18.757Z,101890.73
2023-09-06T09:06:59.604Z,101892.98
2023-09-06T09:10:00.912Z,101888.80
2023-09-06T09:12:38.092Z,101892.07
2023-09-06T09:15:37.679Z,101894.17
2023-09-06T09:18:17.625Z,101895.29
2023-09-06T09:21:04.538Z,101895.02
2023-09-06T09:23:57.520Z,101897.91
2023-09-06T09:26:43.173Z,101898.04
2023-09-06T09:29:20.308Z,101896.10
2023-09-06T09:32:08.404Z,101893.22
2023-09-06T09:34:44.664Z,101893.16
2023-09-06T09:37:24.679Z,101893.52
2023-09-06T09:40:37.784Z,101889.54
2023-09-06T09:43:24.382Z,101889.98
2023-09-06T09:46:08.346Z,101891.04
2023-09-06T09:48:48.266Z,101891.63
2023-09-06T09:51:34.456Z,101894.52
2023-09-06T09:54:15.651Z,101890.89
2023-09-06T09:57:11.696Z,101886.21
2023-09-06T09:59:48.815Z,101889.59
2023-09-06T10:02:40.103Z,101889.61
2023-09-06T10:05:23.544Z,101889.64
2023-09-06T10:08:04.314Z,101885.80
2023-09-06T10:10:46.320Z,101879.64
2023-09-06T10:13:30.479Z,101877.27
2023-09-06T10:16:09.948Z,101875.45
2023-09-06T10:18:52.404Z,101878.30
2023-09-06T10:21:35.685Z,101881.33
2023-09-06T10:24:22.922Z,101879.34
2023-09-06T10:27:09.861Z,101875.66
2023-09-06T10:30:05.029Z,101872.38
2023-09-06T10:32:51.966Z,101867.41
2023-09-06T10:35:34.833Z,101862.65
2023-09-06T10:38:17.764Z,101856.27
2023-09-06T10:41:15.003Z,101848.64
2023-09-06T10:44:31.535Z,101845.39
2023-09-06T10:47:36.738Z,101842.46
2023-09-06T10:50:15.315Z,101845.05
2023-09-06T10:52:55.679Z,101845.66
2023-09-06T10:55:50.744Z,101845.19
2023-09-06T10:58:46.943Z,101847.50
2023-09-06T11:01:26.129Z,101848.32
2023-09-06T11:04:15.918Z,101849.88
2023-09-06T11:07:01.732Z,101850.00
2023-09-06T11:09:47.924Z,101849.84
2023-09-06T11:12:25.139Z,101847.63
2023-09-06T11:15:05.473Z,101848.25
2023-09-06T11:17:47.933Z,101849.20
2023-09-06T11:20:27.845Z,101847.20
2023-09-06T11:23:07.569Z,101842.66
2023-09-06T11:25:44.781Z,101842.58
2023-09-06T11:28:30.796Z,101843.23
2023-09-06T11:31:23.956Z,101841.97
2023-09-06T11:34:06.345Z,101839.19
2023-09-06T11:36:44.257Z,101842.51
2023-09-06T11:39:40.027Z,101837.90
2023-09-06T11:42:21.951Z,101833.08
2023-09-06T11:45:01.821Z,101830.45
2023-09-06T11:47:41.272Z,101830.73
2023-09-06T11:50:22.415Z,101829.91
2023-09-06T11:53:06.055Z,101830.73
2023-09-06T11:56:02.276Z,101828.28
2023-09-06T11:58:50.997Z,101827.61
2023-09-06T12:01:30.898Z,101826.27
2023-09-06T12:04:09.052Z,101827.08
2023-09-06T12:06:47.409Z,101825.91
2023-09-06T12:09:25.068Z,101826.62
2023-09-06T12:12:01.417Z,101826.40
2023-09-06T12:14:41.570Z,101824.65
2023-09-06T12:17:21.418Z,101817.10
2023-09-06T12:20:36.024Z,101809.38
2023-09-06T12:23:15.132Z,101811.57
2023-09-06T12:25:52.499Z,101813.22
2023-09-06T12:28:29.417Z,101810.55
2023-09-06T12:31:17.129Z,101811.81
2023-09-06T12:33:55.229Z,101810.08
2023-09-06T12:36:38.786Z,101811.58
2023-09-06T12:39:16.810Z,101813.41
2023-09-06T12:41:51.578Z,101809.11
2023-09-06T12:44:28.872Z,101808.27
2023-09-06T12:47:08.040Z,101809.59
2023-09-06T12:49:44.217Z,101807.72
2023-09-06T12:52:23.115Z,101804.14
2023-09-06T12:54:59.742Z,101804.55
2023-09-06T12:57:47.832Z,101801.71
2023-09-06T13:00:24.692Z,101799.37
2023-09-06T13:03:06.925Z,101793.80
2023-09-06T13:05:45.382Z,101794.23
2023-09-06T13:08:24.463Z,101791.15
2023-09-06T13:11:02.506Z,101787.20
2023-09-06T13:13:40.605Z,101787.21
2023-09-06T13:16:21.029Z,101784.72
2023-09-06T13:18:58.772Z,101781.67
2023-09-06T13:21:35.950Z,101778.46
2023-09-06T13:24:17.954Z,101774.53
2023-09-06T13:26:59.170Z,101772.02
2023-09-06T13:29:41.656Z,101771.51
2023-09-06T13:32:19.845Z,101771.53
2023-09-06T13:34:58.455Z,101769.56
2023-09-06T13:37:33.928Z,101768.50
2023-09-06T13:40:11.313Z,101767.42
2023-09-06T13:42:49.862Z,101768.86
2023-09-06T13:45:24.872Z,101760.75
2023-09-06T13:48:03.011Z,101760.23
2023-09-06T13:50:42.209Z,101758.26
2023-09-06T13:53:19.054Z,101757.75
2023-09-06T13:56:10.599Z,101757.95
2023-09-06T13:58:46.056Z,101755.65
2023-09-06T14:01:29.707Z,101756.39
2023-09-06T14:04:03.344Z,101755.13
2023-09-06T14:06:42.206Z,101756.42
2023-09-06T14:09:21.067Z,101751.54
2023-09-06T14:12:01.962Z,101751.90
2023-09-06T14:14:41.755Z,101745.75
2023-09-06T14:17:19.681Z,101745.02
2023-09-06T14:19:57.212Z,101746.83
2023-09-06T14:22:34.914Z,101746.10
2023-09-06T14:25:13.580Z,101746.27
2023-09-06T14:27:50.411Z,101748.29
2023-09-06T14:30:29.165Z,101747.06
2023-09-06T14:33:07.269Z,101748.70
2023-09-06T14:35:48.350Z,101744.94
2023-09-06T14:38:25.303Z,101745.66
2023-09-06T14:41:00.137Z,101746.41
2023-09-06T14:43:39.758Z,101745.18
2023-09-06T14:46:16.758Z,101747.54
2023-09-06T14:48:53.226Z,101748.64
2023-09-06T14:51:29.104Z,101749.74
2023-09-06T14:54:11.770Z,101747.78
2023-09-06T14:56:51.198Z,101745.06
2023-09-06T14:59:35.268Z,101746.80
2023-09-06T15:02:16.407Z,101746.59
2023-09-06T15:04:58.824Z,101748.17
2023-09-06T15:07:34.220Z,101747.82
2023-09-06T15:10:15.071Z,101746.54
2023-09-06T15:12:55.531Z,101748.86
2023-09-06T15:15:36.293Z,101749.22
2023-09-06T15:18:12.272Z,101748.17
2023-09-06T15:20:47.236Z,101747.88
2023-09-06T15:23:27.305Z,101754.08
2023-09-06T15:26:06.346Z,101751.58
2023-09-06T15:28:40.793Z,101751.02
2023-09-06T15:31:20.107Z,101746.12
2023-09-06T15:33:56.658Z,101747.75
2023-09-06T15:36:32.611Z,101750.09
2023-09-06T15:39:11.458Z,101751.38
2023-09-06T15:41:51.064Z,101749.92
2023-09-06T15:44:25.883Z,101750.14
2023-09-06T15:47:03.038Z,101747.80
2023-09-06T15:49:40.233Z,101750.70
2023-09-06T15:52:15.762Z,101751.94
2023-09-06T15:54:56.882Z,101752.45
2023-09-06T15:57:34.741Z,101749.73
2023-09-06T16:00:31.474Z,101756.56
2023-09-06T16:03:15.165Z,101753.66
2023-09-06T16:05:51.415Z,101751.83
2023-09-06T16:08:28.341Z,101749.84
2023-09-06T16:11:05.849Z,101749.48
2023-09-06T16:13:47.084Z,101748.57
2023-09-06T16:16:23.952Z,101749.48
2023-09-06T16:18:58.572Z,101747.13
2023-09-06T16:21:36.516Z,101751.83
2023-09-06T16:24:13.242Z,101751.68
2023-09-06T16:26:48.574Z,101754.98
2023-09-06T16:29:28.863Z,101753.21
2023-09-06T16:32:11.708Z,101755.77
2023-09-06T16:34:46.813Z,101755.08
2023-09-06T16:37:25.716Z,101754.73
2023-09-06T16:40:03.855Z,101752.61
2023-09-06T16:42:54.884Z,101751.91
2023-09-06T16:45:32.787Z,101751.37
2023-09-06T16:48:14.193Z,101749.16
2023-09-06T16:50:54.452Z,101751.10
2023-09-06T16:53:30.609Z,101751.92
2023-09-06T16:56:06.392Z,101751.85
2023-09-06T16:58:43.223Z,101757.02
2023-09-06T17:01:19.472Z,101756.36
2023-09-06T17:03:58.566Z,101753.35
2023-09-06T17:06:41.043Z,101756.47
2023-09-06T17:09:27.501Z,101758.29
2023-09-06T17:12:06.703Z,101756.85
2023-09-06T17:14:52.687Z,101757.60
2023-09-06T17:17:30.176Z,101763.05
2023-09-06T17:20:18.536Z,101764.50
2023-09-06T17:23:00.303Z,101767.02
2023-09-06T17:25:41.525Z,101769.19
2023-09-06T17:28:17.468Z,101772.25
2023-09-06T17:30:58.373Z,101774.77
2023-09-06T17:33:53.355Z,101778.66
2023-09-06T17:36:31.318Z,101777.20
2023-09-06T17:39:13.612Z,101781.86
2023-09-06T17:41:51.405Z,101787.77
2023-09-06T17:44:33.171Z,101791.32
2023-09-06T17:47:14.426Z,101791.10
2023-09-06T17:49:54.426Z,101792.46
2023-09-06T17:52:34.731Z,101793.09
2023-09-06T17:55:15.359Z,101794.65
2023-09-06T17:57:51.466Z,101798.21
2023-09-06T18:00:31.285Z,101798.70
2023-09-06T18:03:14.654Z,101798.65
2023-09-06T18:05:56.794Z,101800.60
2023-09-06T18:08:36.794Z,101801.80
2023-09-06T18:11:15.032Z,101803.91
2023-09-06T18:13:59.616Z,101804.73
2023-09-06T18:16:42.898Z,101810.22
2023-09-06T18:19:26.955Z,101817.19
2023-09-06T18:22:07.145Z,101818.39
2023-09-06T18:24:47.396Z,101815.98
2023-09-06T18:27:32.531Z,101822.42
2023-09-06T18:30:19.957Z,101826.16
2023-09-06T18:33:21.024Z,101826.92
2023-09-06T18:35:58.527Z,101831.00
2023-09-06T18:38:54.851Z,101833.52
2023-09-06T18:41:31.395Z,101832.73
2023-09-06T18:44:13.009Z,101832.76
2023-09-06T18:46:48.103Z,101828.80
2023-09-06T18:49:24.301Z,101822.55
2023-09-06T18:52:05.718Z,101827.58
2023-09-06T18:54:43.308Z,101827.19
2023-09-06T18:57:22.422Z,101831.34
2023-09-06T19:00:11.229Z,101832.61
2023-09-06T19:02:46.328Z,101829.55
2023-09-06T19:05:40.510Z,101834.33
2023-09-06T19:08:25.398Z,101838.83
2023-09-06T19:11:21.429Z,101843.95
2023-09-06T19:13:59.467Z,101843.42
2023-09-06T19:16:40.217Z,101843.45
2023-09-06T19:19:19.441Z,101848.50
2023-09-06T19:21:57.408Z,101846.20
2023-09-06T19:24:37.366Z,101846.39
2023-09-06T19:27:18.411Z,101849.80
2023-09-06T19:29:57.995Z,101859.16
2023-09-06T19:32:38.908Z,101865.27
2023-09-06T19:35:16.008Z,101867.17
2023-09-06T19:37:51.670Z,101868.38
2023-09-06T19:40:52.157Z,101870.49
2023-09-06T19:43:27.220Z,101877.49
2023-09-06T19:46:10.706Z,101875.27
2023-09-06T19:49:05.593Z,101875.34
2023-09-06T19:51:45.271Z,101872.83
2023-09-06T19:54:24.510Z,101877.02
2023-09-06T19:57:00.346Z,101877.86
2023-09-06T19:59:35.774Z,101880.31
2023-09-06T20:02:13.490Z,101879.00
2023-09-06T20:04:51.516Z,101888.43
2023-09-06T20:07:35.370Z,101893.55
2023-09-06T20:10:12.823Z,101892.23
2023-09-06T20:12:52.052Z,101891.77
2023-09-06T20:15:29.206Z,101888.82
2023-09-06T20:18:08.681Z,101893.98
2023-09-06T20:20:46.523Z,101893.79
2023-09-06T20:23:32.575Z,101895.88
2023-09-06T20:26:09.510Z,101896.75
2023-09-06T20:28:45.496Z,101899.97
2023-09-06T20:31:21.737Z,101905.74
2023-09-06T20:33:56.421Z,101906.10
2023-09-06T20:36:33.194Z,101909.85
2023-09-06T20:39:15.825Z,101910.18
2023-09-06T20:41:52.932Z,101913.38
2023-09-06T20:44:27.289Z,101912.97
2023-09-06T20:47:05.983Z,101916.18
2023-09-06T20:49:45.304Z,101916.27
2023-09-06T20:52:25.080Z,101917.83
2023-09-06T20:55:06.926Z,101919.02
2023-09-06T20:57:47.020Z,101921.05
2023-09-06T21:00:27.864Z,101925.01
2023-09-06T21:03:03.725Z,101925.64
2023-09-06T21:05:39.686Z,101926.48
2023-09-06T21:08:15.840Z,101925.17
2023-09-06T21:10:51.260Z,101927.96
2023-09-06T21:13:29.068Z,101931.13
2023-09-06T21:16:09.326Z,101929.05
2023-09-06T21:18:45.680Z,101928.80
2023-09-06T21:21:21.881Z,101932.63
2023-09-06T21:24:05.390Z,101934.08
2023-09-06T21:26:42.115Z,101933.05
2023-09-06T21:29:28.765Z,101938.35
2023-09-06T21:32:07.673Z,101939.32
2023-09-06T21:34:43.590Z,101942.95
2023-09-06T21:37:19.288Z,101947.84
2023-09-06T21:39:57.258Z,101949.46
2023-09-06T21:42:35.133Z,101949.66
2023-09-06T21:45:15.589Z,101955.47
2023-09-06T21:48:00.338Z,101957.45
2023-09-06T21:50:38.856Z,101962.29
2023-09-06T21:53:16.701Z,101961.46
2023-09-06T21:55:54.778Z,101964.65
2023-09-06T21:58:35.189Z,101964.41
2023-09-06T22:01:29.650Z,101965.06
2023-09-06T22:04:26.716Z,101964.11
2023-09-06T22:07:23.070Z,101965.66
2023-09-06T22:10:22.060Z,101966.54
2023-09-06T22:13:19.971Z,101968.98
2023-09-06T22:15:56.857Z,101975.50
2023-09-06T22:18:33.837Z,101976.67
2023-09-06T22:21:11.506Z,101975.73
2023-09-06T22:23:48.021Z,101976.83
2023-09-06T22:26:27.699Z,101976.44
2023-09-06T22:29:11.498Z,101978.61
2023-09-06T22:31:47.549Z,101978.33
2023-09-06T22:34:29.073Z,101978.04
2023-09-06T22:37:05.957Z,101977.42
2023-09-06T22:39:44.091Z,101977.67
2023-09-06T22:42:26.388Z,101980.56
2023-09-06T22:45:03.745Z,101981.13
2023-09-06T22:47:49.215Z,101981.74
2023-09-06T22:50:28.147Z,101982.54
2023-09-06T22:53:16.243Z,101978.34
2023-09-06T22:55:50.937Z,101982.73
2023-09-06T22:58:29.260Z,101984.46
2023-09-06T23:01:13.476Z,101982.98
2023-09-06T23:03:51.306Z,101984.63
2023-09-06T23:06:28.880Z,101984.14
2023-09-06T23:09:08.756Z,101985.45
2023-09-06T23:11:53.743Z,101991.23
2023-09-06T23:14:45.228Z,101991.61
2023-09-06T23:17:24.806Z,101991.28
2023-09-06T23:20:13.658Z,101991.80
2023-09-06T23:22:55.391Z,101989.36
2023-09-06T23:25:38.108Z,101991.48
2023-09-06T23:28:24.735Z,101993.05
2023-09-06T23:31:07.701Z,101991.23
2023-09-06T23:33:51.510Z,101991.74
2023-09-06T23:36:30.222Z,101993.85
2023-09-06T23:39:23.554Z,101993.15
2023-09-06T23:42:11.898Z,101997.62
2023-09-06T23:44:48.101Z,102002.95
2023-09-06T23:47:23.427Z,102002.90
2023-09-06T23:50:00.137Z,102008.33
2023-09-06T23:52:36.747Z,102012.02
2023-09-06T23:55:15.347Z,102015.56
2023-09-06T23:57:54.088Z,102015.35
